Time,TemperatureF,DewpointF,PressureIn,WindDirection,WindDirectionDegrees,WindSpeedMPH,WindSpeedGustMPH,Humidity,HourlyPrecipIn,Conditions,Clouds,dailyrainin,SoftwareType,DateUTC
2013-08-23 00:00:00,69.2,66.5,29.92,WNW,295,0.0,0.0,91,0.00,,FEW055,0.00,VWS V14.01,2013-08-23 04:00:00,
2013-08-23 00:01:00,69.2,66.5,29.92,WNW,295,0.0,0.0,91,0.00,,FEW055,0.00,VWS V14.01,2013-08-23 04:01:00,
2013-08-23 00:02:00,69.2,66.5,29.92,WNW,295,0.0,0.0,91,0.00,,FEW055,0.00,VWS V14.01,2013-08-23 04:02:00,
2013-08-23 00:07:00,69.1,66.4,29.92,WNW,295,0.0,0.0,91,0.00,,FEW055,0.00,VWS V14.01,2013-08-23 04:07:00,
2013-08-23 00:12:00,68.9,66.2,29.92,WNW,282,0.0,1.0,91,0.00,,FEW055,0.00,VWS V14.01,2013-08-23 04:12:00,
2013-08-23 00:17:00,68.8,66.4,29.92,West,262,0.0,0.0,92,0.00,,FEW055,0.00,VWS V14.01,2013-08-23 04:17:00,
2013-08-23 00:22:00,68.6,66.2,29.92,WNW,295,0.0,1.0,92,0.00,,FEW055,0.00,VWS V14.01,2013-08-23 04:22:00,
2013-08-23 00:27:00,68.6,66.2,29.91,NW,310,0.0,0.0,92,0.00,,FEW055,0.00,VWS V14.01,2013-08-23 04:27:00,
2013-08-23 00:32:00,68.6,66.2,29.91,NW,311,0.0,0.0,92,0.00,,FEW055,0.00,VWS V14.01,2013-08-23 04:32:00,
2013-08-23 00:37:00,68.4,66.0,29.91,NW,311,0.0,0.0,92,0.00,,FEW055,0.00,VWS V14.01,2013-08-23 04:37:00,
2013-08-23 00:42:00,68.3,65.9,29.92,NW,311,0.0,0.0,92,0.00,,FEW055,0.00,VWS V14.01,2013-08-23 04:42:00,
2013-08-23 00:47:00,67.9,65.8,29.92,NW,312,0.0,0.0,93,0.00,,FEW055,0.00,VWS V14.01,2013-08-23 04:47:00,
2013-08-23 00:53:00,67.7,65.6,29.91,ENE,77,0.0,0.0,93,0.00,,FEW055,0.00,VWS V14.01,2013-08-23 04:53:00,
2013-08-23 00:58:00,67.6,65.5,29.91,East,94,0.0,0.0,93,0.00,,FEW055,0.00,VWS V14.01,2013-08-23 04:58:00,
2013-08-23 01:03:00,67.4,65.6,29.92,East,87,0.0,0.0,94,0.00,,FEW055,0.00,VWS V14.01,2013-08-23 05:03:00,
2013-08-23 01:08:00,67.5,65.7,29.92,East,89,0.0,0.0,94,0.00,,FEW055,0.00,VWS V14.01,2013-08-23 05:08:00,
2013-08-23 01:13:00,67.5,65.7,29.92,East,87,0.0,0.0,94,0.00,,FEW055,0.00,VWS V14.01,2013-08-23 05:13:00,
2013-08-23 01:18:00,67.6,65.5,29.92,East,87,0.0,0.0,93,0.00,,FEW055,0.00,VWS V14.01,2013-08-23 05:18:00,
2013-08-23 01:23:00,67.6,65.5,29.92,East,89,0.0,0.0,93,0.00,,FEW055,0.00,VWS V14.01,2013-08-23 05:23:00,
2013-08-23 01:28:00,67.4,65.3,29.92,East,88,0.0,0.0,93,0.00,,FEW055,0.00,VWS V14.01,2013-08-23 05:28:00,
2013-08-23 01:33:00,67.3,65.2,29.92,East,87,0.0,0.0,93,0.00,,FEW055,0.00,VWS V14.01,2013-08-23 05:33:00,
2013-08-23 01:38:00,67.4,65.3,29.91,East,88,0.0,0.0,93,0.00,,CLR,0.00,VWS V14.01,2013-08-23 05:38:00,
2013-08-23 01:44:00,67.3,65.2,29.91,East,88,0.0,0.0,93,0.00,,CLR,0.00,VWS V14.01,2013-08-23 05:44:00,
2013-08-23 01:49:00,67.5,65.7,29.91,NNW,333,0.0,0.0,94,0.00,,CLR,0.00,VWS V14.01,2013-08-23 05:49:00,
2013-08-23 01:54:00,67.6,65.5,29.91,NNW,335,0.0,0.0,93,0.00,,CLR,0.00,VWS V14.01,2013-08-23 05:54:00,
2013-08-23 01:59:00,67.9,65.8,29.91,NW,323,0.0,0.0,93,0.00,,CLR,0.00,VWS V14.01,2013-08-23 05:59:00,
2013-08-23 02:04:00,68.4,66.0,29.91,NW,321,0.0,1.0,92,0.00,,CLR,0.00,VWS V14.01,2013-08-23 06:04:00,
2013-08-23 02:09:00,68.7,66.0,29.91,NW,316,0.0,0.0,91,0.00,,CLR,0.00,VWS V14.01,2013-08-23 06:09:00,
2013-08-23 02:14:00,68.7,65.7,29.91,NW,312,0.0,0.0,90,0.00,,CLR,0.00,VWS V14.01,2013-08-23 06:14:00,
2013-08-23 02:19:00,68.5,65.5,29.91,NW,311,0.0,0.0,90,0.00,,CLR,0.00,VWS V14.01,2013-08-23 06:19:00,
2013-08-23 02:24:00,68.1,65.4,29.91,NW,311,0.0,0.0,91,0.00,,CLR,0.00,VWS V14.01,2013-08-23 06:24:00,
2013-08-23 02:29:00,67.8,65.1,29.91,NW,311,0.0,0.0,91,0.00,,CLR,0.00,VWS V14.01,2013-08-23 06:29:00,
2013-08-23 02:35:00,67.6,65.2,29.91,NW,312,0.0,0.0,92,0.00,,CLR,0.00,VWS V14.01,2013-08-23 06:35:00,
2013-08-23 02:40:00,67.6,65.2,29.91,NW,312,0.0,0.0,92,0.00,,CLR,0.00,VWS V14.01,2013-08-23 06:40:00,
2013-08-23 02:45:00,67.6,65.2,29.91,NW,312,0.0,0.0,92,0.00,,CLR,0.00,VWS V14.01,2013-08-23 06:45:00,
2013-08-23 02:50:00,67.5,65.1,29.91,NW,312,0.0,0.0,92,0.00,,CLR,0.00,VWS V14.01,2013-08-23 06:50:00,
2013-08-23 02:55:00,67.2,64.8,29.91,NW,312,0.0,0.0,92,0.00,,CLR,0.00,VWS V14.01,2013-08-23 06:55:00,
2013-08-23 03:00:00,67.1,65.0,29.91,NW,312,0.0,0.0,93,0.00,,CLR,0.00,VWS V14.01,2013-08-23 07:00:00,
2013-08-23 03:05:00,67.1,65.0,29.90,NW,314,0.0,0.0,93,0.00,,CLR,0.00,VWS V14.01,2013-08-23 07:05:00,
2013-08-23 03:10:00,67.0,64.9,29.90,NW,315,0.0,0.0,93,0.00,,CLR,0.00,VWS V14.01,2013-08-23 07:10:00,
2013-08-23 03:15:00,67.0,64.9,29.91,NW,315,0.0,0.0,93,0.00,,CLR,0.00,VWS V14.01,2013-08-23 07:15:00,
2013-08-23 03:20:00,66.7,64.6,29.91,NW,314,0.0,0.0,93,0.00,,CLR,0.00,VWS V14.01,2013-08-23 07:20:00,
2013-08-23 03:25:00,66.3,64.2,29.91,NW,314,0.0,0.0,93,0.00,,CLR,0.00,VWS V14.01,2013-08-23 07:25:00,
2013-08-23 03:30:00,65.9,64.1,29.91,NW,314,0.0,0.0,94,0.00,,CLR,0.00,VWS V14.01,2013-08-23 07:30:00,
2013-08-23 03:35:00,65.7,63.9,29.91,NW,314,0.0,0.0,94,0.00,,CLR,0.00,VWS V14.01,2013-08-23 07:35:00,
2013-08-23 03:40:00,65.7,64.2,29.91,NW,315,0.0,0.0,95,0.00,,CLR,0.00,VWS V14.01,2013-08-23 07:40:00,
2013-08-23 03:45:00,65.8,64.6,29.91,NW,314,0.0,0.0,96,0.00,,CLR,0.00,VWS V14.01,2013-08-23 07:45:00,
2013-08-23 03:50:00,65.9,64.7,29.91,NW,314,0.0,0.0,96,0.00,,CLR,0.00,VWS V14.01,2013-08-23 07:50:00,
2013-08-23 03:56:00,65.8,64.6,29.91,NW,315,0.0,0.0,96,0.00,,CLR,0.00,VWS V14.01,2013-08-23 07:56:00,
2013-08-23 04:01:00,65.8,64.6,29.91,NW,315,0.0,0.0,96,0.00,,CLR,0.00,VWS V14.01,2013-08-23 08:01:00,
2013-08-23 04:06:00,65.6,64.4,29.91,NW,314,0.0,0.0,96,0.00,,CLR,0.00,VWS V14.01,2013-08-23 08:06:00,
2013-08-23 04:11:00,65.1,63.6,29.91,NE,39,0.0,0.0,95,0.00,,CLR,0.00,VWS V14.01,2013-08-23 08:11:00,
2013-08-23 04:16:00,65.0,63.8,29.91,East,96,0.0,0.0,96,0.00,,CLR,0.00,VWS V14.01,2013-08-23 08:16:00,
2013-08-23 04:21:00,64.7,63.5,29.91,East,96,0.0,0.0,96,0.00,,CLR,0.00,VWS V14.01,2013-08-23 08:21:00,
2013-08-23 04:26:00,64.7,63.8,29.91,East,94,0.0,0.0,97,0.00,,CLR,0.00,VWS V14.01,2013-08-23 08:26:00,
2013-08-23 04:31:00,65.1,64.2,29.91,East,94,0.0,0.0,97,0.00,,CLR,0.00,VWS V14.01,2013-08-23 08:31:00,
2013-08-23 04:36:00,65.3,64.4,29.91,East,96,0.0,0.0,97,0.00,,CLR,0.00,VWS V14.01,2013-08-23 08:36:00,
2013-08-23 04:41:00,65.4,64.5,29.91,East,96,0.0,0.0,97,0.00,,CLR,0.00,VWS V14.01,2013-08-23 08:41:00,
2013-08-23 04:46:00,65.4,64.5,29.91,ESE,103,0.0,0.0,97,0.00,,CLR,0.00,VWS V14.01,2013-08-23 08:46:00,
2013-08-23 04:51:00,65.6,64.7,29.91,East,94,0.0,0.0,97,0.00,,CLR,0.00,VWS V14.01,2013-08-23 08:51:00,
2013-08-23 04:56:00,65.7,64.8,29.91,East,94,0.0,0.0,97,0.00,,CLR,0.00,VWS V14.01,2013-08-23 08:56:00,
2013-08-23 05:02:00,65.6,64.4,29.91,East,94,0.0,0.0,96,0.00,,CLR,0.00,VWS V14.01,2013-08-23 09:02:00,
2013-08-23 05:07:00,65.4,64.2,29.92,East,94,0.0,0.0,96,0.00,,CLR,0.00,VWS V14.01,2013-08-23 09:07:00,
2013-08-23 05:12:00,65.4,64.2,29.92,East,94,0.0,0.0,96,0.00,,CLR,0.00,VWS V14.01,2013-08-23 09:12:00,
2013-08-23 05:17:00,65.2,64.0,29.92,East,94,0.0,0.0,96,0.00,,CLR,0.00,VWS V14.01,2013-08-23 09:17:00,
2013-08-23 05:22:00,65.0,64.1,29.92,East,94,0.0,0.0,97,0.00,,CLR,0.00,VWS V14.01,2013-08-23 09:22:00,
2013-08-23 05:27:00,65.0,64.1,29.92,East,94,0.0,0.0,97,0.00,,CLR,0.00,VWS V14.01,2013-08-23 09:27:00,
2013-08-23 05:32:00,64.9,64.0,29.92,East,95,0.0,0.0,97,0.00,,CLR,0.00,VWS V14.01,2013-08-23 09:32:00,
2013-08-23 05:37:00,64.9,64.0,29.92,East,94,0.0,0.0,97,0.00,,CLR,0.00,VWS V14.01,2013-08-23 09:37:00,
2013-08-23 05:42:00,64.9,64.0,29.92,East,94,0.0,0.0,97,0.00,,CLR,0.00,VWS V14.01,2013-08-23 09:42:00,
2013-08-23 05:47:00,65.0,64.4,29.92,East,94,0.0,0.0,98,0.00,,CLR,0.00,VWS V14.01,2013-08-23 09:47:00,
2013-08-23 05:52:00,64.9,64.0,29.93,East,94,0.0,0.0,97,0.00,,CLR,0.00,VWS V14.01,2013-08-23 09:52:00,
2013-08-23 05:57:00,64.8,63.9,29.93,East,94,0.0,0.0,97,0.00,,CLR,0.00,VWS V14.01,2013-08-23 09:57:00,
2013-08-23 06:03:00,64.7,63.8,29.93,East,94,0.0,0.0,97,0.00,,CLR,0.00,VWS V14.01,2013-08-23 10:03:00,
2013-08-23 06:08:00,64.8,64.2,29.93,ENE,72,0.0,0.0,98,0.00,,CLR,0.00,VWS V14.01,2013-08-23 10:08:00,
2013-08-23 06:13:00,64.8,63.9,29.93,ENE,72,0.0,0.0,97,0.00,,CLR,0.00,VWS V14.01,2013-08-23 10:13:00,
2013-08-23 06:18:00,64.9,64.3,29.93,ENE,72,0.0,0.0,98,0.00,,CLR,0.00,VWS V14.01,2013-08-23 10:18:00,
2013-08-23 06:23:00,65.2,64.6,29.93,NNW,344,0.0,0.0,98,0.00,,CLR,0.00,VWS V14.01,2013-08-23 10:23:00,
2013-08-23 06:28:00,65.3,64.4,29.93,ENE,74,0.0,0.0,97,0.00,,CLR,0.00,VWS V14.01,2013-08-23 10:28:00,
2013-08-23 06:33:00,65.2,64.3,29.93,ENE,73,0.0,0.0,97,0.00,,CLR,0.00,VWS V14.01,2013-08-23 10:33:00,
2013-08-23 06:38:00,64.9,64.0,29.93,East,79,0.0,0.0,97,0.00,,CLR,0.00,VWS V14.01,2013-08-23 10:38:00,
2013-08-23 06:43:00,64.9,64.0,29.94,East,84,0.0,0.0,97,0.00,,CLR,0.00,VWS V14.01,2013-08-23 10:43:00,
2013-08-23 06:48:00,65.1,64.2,29.94,East,83,0.0,0.0,97,0.00,,CLR,0.00,VWS V14.01,2013-08-23 10:48:00,
2013-08-23 06:53:00,65.5,64.6,29.94,North,356,0.0,0.0,97,0.00,,CLR,0.00,VWS V14.01,2013-08-23 10:53:00,
2013-08-23 06:58:00,65.9,65.0,29.94,North,355,0.0,0.0,97,0.00,,CLR,0.00,VWS V14.01,2013-08-23 10:58:00,
2013-08-23 07:03:00,65.9,64.7,29.94,North,355,0.0,0.0,96,0.00,,CLR,0.00,VWS V14.01,2013-08-23 11:03:00,
2013-08-23 07:09:00,66.0,64.8,29.95,North,356,0.0,0.0,96,0.00,,,0.00,VWS V14.01,2013-08-23 11:09:00,
2013-08-23 07:14:00,66.0,64.8,29.95,NW,304,0.0,0.0,96,0.00,,,0.00,VWS V14.01,2013-08-23 11:14:00,
2013-08-23 07:19:00,66.0,64.8,29.95,WNW,283,0.0,0.0,96,0.00,,,0.00,VWS V14.01,2013-08-23 11:19:00,
2013-08-23 07:24:00,66.0,64.8,29.95,WNW,283,0.0,0.0,96,0.00,,,0.00,VWS V14.01,2013-08-23 11:24:00,
2013-08-23 07:29:00,66.1,64.9,29.96,WNW,283,0.0,0.0,96,0.00,,,0.00,VWS V14.01,2013-08-23 11:29:00,
2013-08-23 07:34:00,66.2,65.0,29.96,WNW,283,0.0,0.0,96,0.00,,,0.00,VWS V14.01,2013-08-23 11:34:00,
2013-08-23 07:39:00,66.4,65.2,29.96,WNW,284,0.0,0.0,96,0.00,,,0.00,VWS V14.01,2013-08-23 11:39:00,
2013-08-23 07:44:00,66.7,65.5,29.96,WNW,283,0.0,0.0,96,0.00,,,0.00,VWS V14.01,2013-08-23 11:44:00,
2013-08-23 07:49:00,66.9,65.7,29.96,WNW,284,0.0,0.0,96,0.00,,,0.00,VWS V14.01,2013-08-23 11:49:00,
2013-08-23 07:54:00,67.2,66.0,29.96,WNW,284,0.0,0.0,96,0.00,,,0.00,VWS V14.01,2013-08-23 11:54:00,
2013-08-23 07:59:00,67.4,65.9,29.96,WNW,284,0.0,0.0,95,0.00,,,0.00,VWS V14.01,2013-08-23 11:59:00,
2013-08-23 08:04:00,67.6,66.1,29.97,NW,316,0.0,0.0,95,0.00,,,0.00,VWS V14.01,2013-08-23 12:04:00,
2013-08-23 08:10:00,67.7,66.2,29.97,WNW,301,0.0,0.0,95,0.00,,,0.00,VWS V14.01,2013-08-23 12:10:00,
2013-08-23 08:15:00,67.9,66.1,29.97,WNW,300,0.0,0.0,94,0.00,,,0.00,VWS V14.01,2013-08-23 12:15:00,
2013-08-23 08:20:00,68.1,66.0,29.97,NNW,342,0.0,0.0,93,0.00,,,0.00,VWS V14.01,2013-08-23 12:20:00,
2013-08-23 08:25:00,68.3,66.2,29.97,NW,309,0.0,1.0,93,0.00,,,0.00,VWS V14.01,2013-08-23 12:25:00,
2013-08-23 08:30:00,68.5,66.1,29.97,NW,311,0.0,1.0,92,0.00,,,0.00,VWS V14.01,2013-08-23 12:30:00,
2013-08-23 08:35:00,68.8,66.4,29.97,North,356,0.0,1.0,92,0.00,,,0.00,VWS V14.01,2013-08-23 12:35:00,
2013-08-23 08:40:00,68.9,66.2,29.97,North,353,0.0,1.0,91,0.00,,,0.00,VWS V14.01,2013-08-23 12:40:00,
2013-08-23 08:45:00,69.0,66.3,29.97,NW,309,0.0,3.0,91,0.00,,,0.00,VWS V14.01,2013-08-23 12:45:00,
2013-08-23 08:50:00,69.0,66.3,29.98,NW,325,0.0,1.0,91,0.00,,,0.00,VWS V14.01,2013-08-23 12:50:00,
2013-08-23 08:55:00,69.0,65.9,29.98,NNW,344,0.0,0.0,90,0.00,,,0.00,VWS V14.01,2013-08-23 12:55:00,
2013-08-23 09:00:00,69.1,66.4,29.98,NW,321,0.0,1.0,91,0.00,,,0.00,VWS V14.01,2013-08-23 13:00:00,
2013-08-23 09:05:00,69.1,66.1,29.98,NNW,335,2.0,2.0,90,0.00,,CLR,0.00,VWS V14.01,2013-08-23 13:05:00,
2013-08-23 09:10:00,69.2,66.2,29.98,NNW,333,0.0,3.0,90,0.00,,CLR,0.00,VWS V14.01,2013-08-23 13:10:00,
2013-08-23 09:15:00,69.3,66.2,29.98,NW,314,0.0,2.0,90,0.00,,CLR,0.00,VWS V14.01,2013-08-23 13:15:00,
2013-08-23 09:20:00,69.4,66.0,29.98,NNW,330,0.0,2.0,89,0.00,,CLR,0.00,VWS V14.01,2013-08-23 13:20:00,
2013-08-23 09:25:00,69.6,66.2,29.98,WNW,297,0.0,2.0,89,0.00,,CLR,0.00,VWS V14.01,2013-08-23 13:25:00,
2013-08-23 09:30:00,70.0,66.6,29.98,North,352,0.0,3.0,89,0.00,,CLR,0.00,VWS V14.01,2013-08-23 13:30:00,
2013-08-23 09:35:00,70.3,66.9,29.98,NW,312,0.0,4.0,89,0.00,,CLR,0.00,VWS V14.01,2013-08-23 13:35:00,
2013-08-23 09:40:00,70.5,66.8,29.99,NNW,348,1.0,2.0,88,0.00,,CLR,0.00,VWS V14.01,2013-08-23 13:40:00,
2013-08-23 09:45:00,70.6,66.6,29.99,NNE,16,0.0,4.0,87,0.00,,CLR,0.00,VWS V14.01,2013-08-23 13:45:00,
2013-08-23 09:50:00,70.9,66.8,29.99,North,356,0.0,3.0,87,0.00,,CLR,0.00,VWS V14.01,2013-08-23 13:50:00,
2013-08-23 09:55:00,71.2,67.1,29.99,North,352,0.0,3.0,87,0.00,,CLR,0.00,VWS V14.01,2013-08-23 13:55:00,
2013-08-23 10:00:00,71.4,66.7,29.99,ENE,59,0.0,3.0,85,0.00,,CLR,0.00,VWS V14.01,2013-08-23 14:00:00,
2013-08-23 10:05:00,71.2,66.5,29.99,NW,304,0.0,3.0,85,0.00,,CLR,0.00,VWS V14.01,2013-08-23 14:05:00,
2013-08-23 10:10:00,71.4,66.7,29.99,North,11,1.0,1.0,85,0.00,,CLR,0.00,VWS V14.01,2013-08-23 14:10:00,
2013-08-23 10:15:00,71.5,66.4,30.00,NNW,340,1.0,1.0,84,0.00,,CLR,0.00,VWS V14.01,2013-08-23 14:15:00,
2013-08-23 10:20:00,71.5,66.1,30.00,NNW,340,0.0,1.0,83,0.00,,CLR,0.00,VWS V14.01,2013-08-23 14:20:00,
2013-08-23 10:25:00,71.4,66.3,30.00,North,349,0.0,2.0,84,0.00,,CLR,0.00,VWS V14.01,2013-08-23 14:25:00,
2013-08-23 10:30:00,71.4,66.3,30.00,WNW,285,0.0,1.0,84,0.00,,CLR,0.00,VWS V14.01,2013-08-23 14:30:00,
2013-08-23 10:35:00,71.6,66.5,30.00,WNW,297,0.0,0.0,84,0.00,,CLR,0.00,VWS V14.01,2013-08-23 14:35:00,
2013-08-23 10:40:00,71.9,66.5,30.00,North,360,0.0,0.0,83,0.00,,CLR,0.00,VWS V14.01,2013-08-23 14:40:00,
2013-08-23 10:45:00,72.0,66.6,30.01,NNW,333,0.0,1.0,83,0.00,,CLR,0.00,VWS V14.01,2013-08-23 14:45:00,
2013-08-23 10:50:00,71.8,66.0,30.01,NNW,328,0.0,0.0,82,0.00,,CLR,0.00,VWS V14.01,2013-08-23 14:50:00,
2013-08-23 10:55:00,71.8,66.0,30.01,WNW,303,0.0,0.0,82,0.00,,CLR,0.00,VWS V14.01,2013-08-23 14:55:00,
2013-08-23 11:00:00,71.7,65.9,30.01,NW,315,0.0,0.0,82,0.00,,CLR,0.00,VWS V14.01,2013-08-23 15:00:00,
2013-08-23 11:05:00,71.8,65.7,30.01,WNW,290,0.0,0.0,81,0.00,,CLR,0.00,VWS V14.01,2013-08-23 15:05:00,
2013-08-23 11:10:00,72.0,65.9,30.01,WNW,298,2.0,2.0,81,0.00,,CLR,0.00,VWS V14.01,2013-08-23 15:10:00,
2013-08-23 11:15:00,72.0,65.5,30.01,NW,319,0.0,1.0,80,0.00,,CLR,0.00,VWS V14.01,2013-08-23 15:15:00,
2013-08-23 11:20:00,72.2,65.7,30.01,NNE,19,1.0,1.0,80,0.00,,CLR,0.00,VWS V14.01,2013-08-23 15:20:00,
2013-08-23 11:25:00,72.4,65.5,30.01,NNW,343,0.0,0.0,79,0.00,,CLR,0.00,VWS V14.01,2013-08-23 15:25:00,
2013-08-23 11:30:00,72.5,65.6,30.02,North,9,0.0,0.0,79,0.00,,CLR,0.00,VWS V14.01,2013-08-23 15:30:00,
2013-08-23 11:36:00,72.4,65.2,30.02,NW,325,0.0,0.0,78,0.00,,CLR,0.00,VWS V14.01,2013-08-23 15:36:00,
2013-08-23 11:41:00,72.1,64.9,30.02,NNE,27,0.0,1.0,78,0.00,,CLR,0.00,VWS V14.01,2013-08-23 15:41:00,
2013-08-23 11:46:00,72.0,64.8,30.03,NNE,15,0.0,2.0,78,0.00,,CLR,0.00,VWS V14.01,2013-08-23 15:46:00,
2013-08-23 11:51:00,72.1,64.5,30.03,NW,310,0.0,1.0,77,0.00,,CLR,0.00,VWS V14.01,2013-08-23 15:51:00,
2013-08-23 11:56:00,72.5,65.3,30.03,WNW,303,0.0,0.0,78,0.00,,CLR,0.00,VWS V14.01,2013-08-23 15:56:00,
2013-08-23 12:01:00,72.5,64.5,30.02,WNW,287,0.0,3.0,76,0.00,,CLR,0.00,VWS V14.01,2013-08-23 16:01:00,
2013-08-23 12:06:00,72.6,65.3,30.03,North,1,0.0,0.0,78,0.00,,OVC100,0.00,VWS V14.01,2013-08-23 16:06:00,
2013-08-23 12:11:00,72.8,65.2,30.02,North,349,0.0,1.0,77,0.00,,OVC100,0.00,VWS V14.01,2013-08-23 16:11:00,
2013-08-23 12:16:00,72.6,64.6,30.02,West,280,0.0,1.0,76,0.00,,OVC100,0.00,VWS V14.01,2013-08-23 16:16:00,
2013-08-23 12:21:00,72.5,64.9,30.02,WNW,282,0.0,1.0,77,0.00,,OVC100,0.00,VWS V14.01,2013-08-23 16:21:00,
2013-08-23 12:26:00,72.2,65.0,30.03,WNW,295,0.0,1.0,78,0.00,,OVC100,0.00,VWS V14.01,2013-08-23 16:26:00,
2013-08-23 12:31:00,71.8,64.6,30.03,WNW,296,0.0,1.0,78,0.00,,OVC100,0.00,VWS V14.01,2013-08-23 16:31:00,
2013-08-23 12:36:00,71.8,65.7,30.02,WNW,296,0.0,0.0,81,0.00,,OVC100,0.00,VWS V14.01,2013-08-23 16:36:00,
2013-08-23 12:42:00,71.7,65.2,30.03,NW,312,0.0,0.0,80,0.00,,OVC100,0.00,VWS V14.01,2013-08-23 16:42:00,
2013-08-23 12:47:00,71.4,66.0,30.03,West,280,0.0,1.0,83,0.00,,OVC100,0.00,VWS V14.01,2013-08-23 16:47:00,
2013-08-23 12:52:00,71.2,66.1,30.02,West,271,0.0,1.0,84,0.00,,OVC100,0.00,VWS V14.01,2013-08-23 16:52:00,
2013-08-23 12:57:00,71.4,66.3,30.02,West,271,0.0,0.0,84,0.00,,OVC100,0.00,VWS V14.01,2013-08-23 16:57:00,
2013-08-23 13:02:00,71.5,66.1,30.02,West,266,0.0,2.0,83,0.00,,OVC100,0.00,VWS V14.01,2013-08-23 17:02:00,
2013-08-23 13:07:00,71.5,65.7,30.02,WNW,294,0.0,1.0,82,0.00,,-RA,0.00,VWS V14.01,2013-08-23 17:07:00,
2013-08-23 13:12:00,71.8,66.4,30.02,WSW,253,0.0,1.0,83,0.00,,-RA,0.00,VWS V14.01,2013-08-23 17:12:00,
2013-08-23 13:17:00,72.0,65.9,30.01,WSW,238,0.0,1.0,81,0.00,,-RA,0.00,VWS V14.01,2013-08-23 17:17:00,
2013-08-23 13:22:00,71.9,65.8,30.01,WNW,287,0.0,1.0,81,0.00,,-RA,0.00,VWS V14.01,2013-08-23 17:22:00,
2013-08-23 13:27:00,71.9,66.1,30.01,WNW,298,0.0,0.0,82,0.00,,-RA,0.00,VWS V14.01,2013-08-23 17:27:00,
2013-08-23 13:32:00,71.9,65.4,30.01,NNW,333,1.0,2.0,80,0.00,,-RA,0.00,VWS V14.01,2013-08-23 17:32:00,
2013-08-23 13:37:00,71.9,65.4,30.01,NW,308,0.0,2.0,80,0.00,,-RA,0.00,VWS V14.01,2013-08-23 17:37:00,
2013-08-23 13:42:00,72.0,65.9,30.01,NW,307,0.0,0.0,81,0.00,,-RA,0.00,VWS V14.01,2013-08-23 17:42:00,
2013-08-23 13:48:00,72.1,65.9,30.01,NNE,12,0.0,2.0,81,0.00,,-RA,0.00,VWS V14.01,2013-08-23 17:48:00,
2013-08-23 13:53:00,72.0,65.1,30.00,NW,326,0.0,2.0,79,0.00,,-RA,0.00,VWS V14.01,2013-08-23 17:53:00,
2013-08-23 13:58:00,71.9,65.4,30.00,NW,321,0.0,1.0,80,0.00,,-RA,0.00,VWS V14.01,2013-08-23 17:58:00,
2013-08-23 14:03:00,71.8,65.3,30.01,NW,312,0.0,3.0,80,0.00,,-RA,0.00,VWS V14.01,2013-08-23 18:03:00,
2013-08-23 14:08:00,71.6,65.5,30.00,WNW,295,0.0,1.0,81,0.00,,SCT120,0.00,VWS V14.01,2013-08-23 18:08:00,
2013-08-23 14:13:00,71.8,66.0,30.01,WNW,282,0.0,1.0,82,0.00,,SCT120,0.00,VWS V14.01,2013-08-23 18:13:00,
2013-08-23 14:18:00,71.8,65.7,30.00,West,267,0.0,1.0,81,0.00,,SCT120,0.00,VWS V14.01,2013-08-23 18:18:00,
2013-08-23 14:23:00,71.8,65.7,30.01,NNW,330,2.0,2.0,81,0.00,,SCT120,0.00,VWS V14.01,2013-08-23 18:23:00,
2013-08-23 14:28:00,71.8,65.3,30.01,NW,321,4.0,4.0,80,0.00,,SCT120,0.00,VWS V14.01,2013-08-23 18:28:00,
2013-08-23 14:33:00,71.7,64.8,30.01,WNW,300,1.0,4.0,79,0.00,,SCT120,0.00,VWS V14.01,2013-08-23 18:33:00,
2013-08-23 14:38:00,71.7,65.2,30.01,NW,308,3.0,3.0,80,0.00,,SCT120,0.00,VWS V14.01,2013-08-23 18:38:00,
2013-08-23 14:44:00,71.6,65.1,30.00,ENE,64,0.0,2.0,80,0.00,,SCT120,0.00,VWS V14.01,2013-08-23 18:44:00,
2013-08-23 14:49:00,71.5,64.7,30.00,North,11,0.0,1.0,79,0.00,,SCT120,0.00,VWS V14.01,2013-08-23 18:49:00,
2013-08-23 14:54:00,71.7,64.5,30.00,North,9,0.0,1.0,78,0.00,,SCT120,0.00,VWS V14.01,2013-08-23 18:54:00,
2013-08-23 14:59:00,72.0,65.1,30.00,North,360,0.0,1.0,79,0.00,,SCT120,0.00,VWS V14.01,2013-08-23 18:59:00,
2013-08-23 15:04:00,72.2,65.0,30.00,NW,321,0.0,1.0,78,0.00,,SCT110,0.00,VWS V14.01,2013-08-23 19:04:00,
2013-08-23 15:09:00,72.4,65.2,30.00,NNE,30,0.0,1.0,78,0.00,,SCT110,0.00,VWS V14.01,2013-08-23 19:09:00,
2013-08-23 15:14:00,72.6,65.0,30.00,WNW,290,0.0,1.0,77,0.00,,SCT110,0.00,VWS V14.01,2013-08-23 19:14:00,
2013-08-23 15:19:00,72.7,64.7,30.01,West,273,0.0,2.0,76,0.00,,SCT110,0.00,VWS V14.01,2013-08-23 19:19:00,
2013-08-23 15:24:00,73.1,65.8,30.01,WNW,286,0.0,1.0,78,0.00,,SCT110,0.00,VWS V14.01,2013-08-23 19:24:00,
2013-08-23 15:29:00,73.5,65.5,30.01,WNW,285,2.0,4.0,76,0.00,,SCT110,0.00,VWS V14.01,2013-08-23 19:29:00,
2013-08-23 15:34:00,73.6,65.2,30.01,WNW,285,1.0,3.0,75,0.00,,SCT110,0.00,VWS V14.01,2013-08-23 19:34:00,
2013-08-23 15:40:00,73.5,64.7,30.01,NNW,328,1.0,3.0,74,0.00,,SCT110,0.00,VWS V14.01,2013-08-23 19:40:00,
2013-08-23 15:45:00,73.5,63.9,30.00,WNW,298,0.0,5.0,72,0.00,,SCT110,0.00,VWS V14.01,2013-08-23 19:45:00,
2013-08-23 15:50:00,73.6,63.6,30.00,WNW,291,1.0,6.0,71,0.00,,SCT110,0.00,VWS V14.01,2013-08-23 19:50:00,
2013-08-23 15:55:00,73.7,63.7,30.00,NW,321,0.0,3.0,71,0.00,,SCT110,0.00,VWS V14.01,2013-08-23 19:55:00,
2013-08-23 16:00:00,73.9,64.7,30.00,WNW,295,2.0,2.0,73,0.00,,SCT110,0.00,VWS V14.01,2013-08-23 20:00:00,
2013-08-23 16:05:00,74.4,64.8,30.00,WSW,255,1.0,5.0,72,0.00,,CLR,0.00,VWS V14.01,2013-08-23 20:05:00,
2013-08-23 16:10:00,75.6,65.1,30.00,NNW,339,3.0,4.0,70,0.00,,CLR,0.00,VWS V14.01,2013-08-23 20:10:00,
2013-08-23 16:15:00,77.2,66.7,30.00,NE,41,0.0,4.0,70,0.00,,CLR,0.00,VWS V14.01,2013-08-23 20:15:00,
2013-08-23 16:20:00,77.5,63.5,30.00,WNW,301,3.0,5.0,62,0.00,,CLR,0.00,VWS V14.01,2013-08-23 20:20:00,
2013-08-23 16:25:00,76.7,61.3,30.00,NW,311,3.0,6.0,59,0.00,,CLR,0.00,VWS V14.01,2013-08-23 20:25:00,
2013-08-23 16:30:00,77.5,61.6,30.00,WNW,291,2.0,4.0,58,0.00,,CLR,0.00,VWS V14.01,2013-08-23 20:30:00,
2013-08-23 16:35:00,78.0,62.5,30.00,WNW,293,0.0,3.0,59,0.00,,CLR,0.00,VWS V14.01,2013-08-23 20:35:00,
2013-08-23 16:40:00,78.2,62.7,30.00,WNW,300,3.0,3.0,59,0.00,,CLR,0.00,VWS V14.01,2013-08-23 20:40:00,
2013-08-23 16:45:00,77.9,63.4,30.00,WNW,283,2.0,4.0,61,0.00,,CLR,0.00,VWS V14.01,2013-08-23 20:45:00,
2013-08-23 16:50:00,78.3,63.8,30.00,ENE,66,3.0,3.0,61,0.00,,CLR,0.00,VWS V14.01,2013-08-23 20:50:00,
2013-08-23 16:55:00,78.6,63.6,30.00,WNW,284,0.0,4.0,60,0.00,,CLR,0.00,VWS V14.01,2013-08-23 20:55:00,
2013-08-23 17:00:00,78.9,63.4,30.00,WNW,287,0.0,3.0,59,0.00,,CLR,0.00,VWS V14.01,2013-08-23 21:00:00,
2013-08-23 17:05:00,78.6,62.6,29.99,West,274,2.0,7.0,58,0.00,,CLR,0.00,VWS V14.01,2013-08-23 21:05:00,
2013-08-23 17:10:00,78.3,62.8,29.99,WNW,288,1.0,7.0,59,0.00,,CLR,0.00,VWS V14.01,2013-08-23 21:10:00,
2013-08-23 17:15:00,78.6,63.1,29.99,NW,321,2.0,4.0,59,0.00,,CLR,0.00,VWS V14.01,2013-08-23 21:15:00,
2013-08-23 17:20:00,78.3,61.8,29.99,WNW,288,2.0,5.0,57,0.00,,CLR,0.00,VWS V14.01,2013-08-23 21:20:00,
2013-08-23 17:25:00,78.1,62.6,29.99,NNE,15,0.0,4.0,59,0.00,,CLR,0.00,VWS V14.01,2013-08-23 21:25:00,
2013-08-23 17:30:00,78.1,63.6,29.99,North,4,0.0,6.0,61,0.00,,CLR,0.00,VWS V14.01,2013-08-23 21:30:00,
2013-08-23 17:35:00,78.3,62.3,29.99,North,349,3.0,5.0,58,0.00,,CLR,0.00,VWS V14.01,2013-08-23 21:35:00,
2013-08-23 17:40:00,78.1,62.6,29.99,NE,47,0.0,5.0,59,0.00,,CLR,0.00,VWS V14.01,2013-08-23 21:40:00,
2013-08-23 17:45:00,78.5,62.5,29.99,WNW,294,1.0,5.0,58,0.00,,CLR,0.00,VWS V14.01,2013-08-23 21:45:00,
2013-08-23 17:50:00,78.3,62.8,29.99,West,274,0.0,6.0,59,0.00,,CLR,0.00,VWS V14.01,2013-08-23 21:50:00,
2013-08-23 17:55:00,79.0,63.5,29.99,NNE,23,0.0,2.0,59,0.00,,CLR,0.00,VWS V14.01,2013-08-23 21:55:00,
2013-08-23 18:00:00,78.6,63.1,29.99,North,353,1.0,4.0,59,0.00,,CLR,0.00,VWS V14.01,2013-08-23 22:00:00,
2013-08-23 18:05:00,77.7,62.2,29.99,NW,314,4.0,8.0,59,0.00,,CLR,0.00,VWS V14.01,2013-08-23 22:05:00,
2013-08-23 18:10:00,77.5,62.5,29.99,NW,309,1.0,4.0,60,0.00,,CLR,0.00,VWS V14.01,2013-08-23 22:10:00,
2013-08-23 18:15:00,77.8,63.3,29.99,WNW,296,1.0,2.0,61,0.00,,CLR,0.00,VWS V14.01,2013-08-23 22:15:00,
2013-08-23 18:20:00,77.7,62.7,29.99,NNW,328,0.0,4.0,60,0.00,,CLR,0.00,VWS V14.01,2013-08-23 22:20:00,
2013-08-23 18:25:00,77.7,63.2,29.99,NNW,331,3.0,4.0,61,0.00,,CLR,0.00,VWS V14.01,2013-08-23 22:25:00,
2013-08-23 18:30:00,77.2,62.7,29.99,NNW,340,1.0,4.0,61,0.00,,CLR,0.00,VWS V14.01,2013-08-23 22:30:00,
2013-08-23 18:35:00,77.5,63.5,29.99,WNW,288,0.0,3.0,62,0.00,,CLR,0.00,VWS V14.01,2013-08-23 22:35:00,
2013-08-23 18:40:00,77.7,63.7,29.99,WNW,301,0.0,3.0,62,0.00,,CLR,0.00,VWS V14.01,2013-08-23 22:40:00,
2013-08-23 18:45:00,78.0,63.9,29.99,WNW,283,0.0,1.0,62,0.00,,CLR,0.00,VWS V14.01,2013-08-23 22:45:00,
2013-08-23 18:50:00,78.1,64.5,29.99,NW,319,0.0,1.0,63,0.00,,CLR,0.00,VWS V14.01,2013-08-23 22:50:00,
2013-08-23 18:55:00,78.3,64.7,29.99,NW,314,0.0,0.0,63,0.00,,CLR,0.00,VWS V14.01,2013-08-23 22:55:00,
2013-08-23 19:00:00,77.9,64.3,29.99,WSW,257,0.0,1.0,63,0.00,,CLR,0.00,VWS V14.01,2013-08-23 23:00:00,
2013-08-23 19:05:00,77.5,64.4,29.99,West,267,0.0,1.0,64,0.00,,CLR,0.00,VWS V14.01,2013-08-23 23:05:00,
2013-08-23 19:10:00,77.3,64.6,29.99,WSW,255,0.0,1.0,65,0.00,,CLR,0.00,VWS V14.01,2013-08-23 23:10:00,
2013-08-23 19:15:00,77.5,64.8,29.99,WSW,255,0.0,0.0,65,0.00,,CLR,0.00,VWS V14.01,2013-08-23 23:15:00,
2013-08-23 19:20:00,77.9,65.2,29.99,WSW,255,0.0,0.0,65,0.00,,CLR,0.00,VWS V14.01,2013-08-23 23:20:00,
2013-08-23 19:25:00,76.8,65.0,29.99,WSW,255,0.0,0.0,67,0.00,,CLR,0.00,VWS V14.01,2013-08-23 23:25:00,
2013-08-23 19:30:00,75.1,65.9,30.00,SW,226,0.0,1.0,73,0.00,,CLR,0.00,VWS V14.01,2013-08-23 23:30:00,
2013-08-23 19:35:00,72.9,65.3,30.00,SW,226,0.0,1.0,77,0.00,,CLR,0.00,VWS V14.01,2013-08-23 23:35:00,
2013-08-23 19:40:00,71.6,64.4,30.00,SE,130,0.0,0.0,78,0.00,,CLR,0.00,VWS V14.01,2013-08-23 23:40:00,
2013-08-23 19:45:00,71.1,64.6,30.00,SE,129,0.0,1.0,80,0.00,,CLR,0.00,VWS V14.01,2013-08-23 23:45:00,
2013-08-23 19:50:00,70.1,65.1,30.00,SE,129,0.0,0.0,84,0.00,,CLR,0.00,VWS V14.01,2013-08-23 23:50:00,
2013-08-23 19:55:00,68.8,64.4,30.01,ESE,120,0.0,0.0,86,0.00,,CLR,0.00,VWS V14.01,2013-08-23 23:55:00,
2013-08-23 20:00:00,68.2,64.2,30.01,ESE,120,0.0,0.0,87,0.00,,CLR,0.00,VWS V14.01,2013-08-24 00:00:00,
2013-08-23 20:05:00,67.9,64.2,30.01,ESE,120,0.0,0.0,88,0.00,,CLR,0.00,VWS V14.01,2013-08-24 00:05:00,
2013-08-23 20:10:00,67.3,64.0,30.01,ESE,120,0.0,0.0,89,0.00,,CLR,0.00,VWS V14.01,2013-08-24 00:10:00,
2013-08-23 20:15:00,66.9,63.6,30.01,ESE,120,0.0,0.0,89,0.00,,CLR,0.00,VWS V14.01,2013-08-24 00:15:00,
2013-08-23 20:20:00,66.5,63.2,30.02,ESE,120,0.0,0.0,89,0.00,,CLR,0.00,VWS V14.01,2013-08-24 00:20:00,
2013-08-23 20:25:00,66.6,63.6,30.02,ESE,118,0.0,1.0,90,0.00,,CLR,0.00,VWS V14.01,2013-08-24 00:25:00,
2013-08-23 20:30:00,66.3,63.0,30.02,ESE,119,0.0,0.0,89,0.00,,CLR,0.00,VWS V14.01,2013-08-24 00:30:00,
2013-08-23 20:35:00,65.7,62.7,30.03,ESE,118,0.0,0.0,90,0.00,,CLR,0.00,VWS V14.01,2013-08-24 00:35:00,
2013-08-23 20:40:00,65.2,62.5,30.03,ESE,110,0.0,0.0,91,0.00,,CLR,0.00,VWS V14.01,2013-08-24 00:40:00,
2013-08-23 20:45:00,64.9,62.5,30.03,ESE,110,0.0,0.0,92,0.00,,CLR,0.00,VWS V14.01,2013-08-24 00:45:00,
2013-08-23 20:50:00,64.5,62.1,30.04,ESE,110,0.0,0.0,92,0.00,,CLR,0.00,VWS V14.01,2013-08-24 00:50:00,
2013-08-23 20:55:00,64.3,62.2,30.04,ESE,110,0.0,1.0,93,0.00,,CLR,0.00,VWS V14.01,2013-08-24 00:55:00,
2013-08-23 21:00:00,64.1,62.0,30.04,ESE,110,0.0,0.0,93,0.00,,CLR,0.00,VWS V14.01,2013-08-24 01:00:00,
2013-08-23 21:05:00,64.1,62.3,30.05,ESE,110,0.0,0.0,94,0.00,,CLR,0.00,VWS V14.01,2013-08-24 01:05:00,
2013-08-23 21:10:00,64.0,62.2,30.05,ESE,110,0.0,0.0,94,0.00,,CLR,0.00,VWS V14.01,2013-08-24 01:10:00,
2013-08-23 21:15:00,64.0,62.2,30.05,ESE,110,0.0,0.0,94,0.00,,CLR,0.00,VWS V14.01,2013-08-24 01:15:00,
2013-08-23 21:20:00,64.0,62.2,30.05,ESE,110,0.0,0.0,94,0.00,,CLR,0.00,VWS V14.01,2013-08-24 01:20:00,
2013-08-23 21:25:00,63.9,62.1,30.06,ESE,110,0.0,0.0,94,0.00,,CLR,0.00,VWS V14.01,2013-08-24 01:25:00,
2013-08-23 21:30:00,63.8,61.7,30.06,ENE,77,1.0,1.0,93,0.00,,CLR,0.00,VWS V14.01,2013-08-24 01:30:00,
2013-08-23 21:35:00,63.6,61.8,30.06,ENE,77,0.0,1.0,94,0.00,,CLR,0.00,VWS V14.01,2013-08-24 01:35:00,
2013-08-23 21:40:00,63.7,61.6,30.06,NE,46,0.0,0.0,93,0.00,,CLR,0.00,VWS V14.01,2013-08-24 01:40:00,
2013-08-23 21:45:00,63.4,61.3,30.06,NE,46,0.0,0.0,93,0.00,,CLR,0.00,VWS V14.01,2013-08-24 01:45:00,
2013-08-23 21:50:00,62.9,60.8,30.07,NE,46,0.0,0.0,93,0.00,,CLR,0.00,VWS V14.01,2013-08-24 01:50:00,
2013-08-23 21:55:00,62.5,60.5,30.07,NE,47,0.0,0.0,93,0.00,,CLR,0.00,VWS V14.01,2013-08-24 01:55:00,
2013-08-23 22:00:00,62.2,60.5,30.07,NE,46,0.0,0.0,94,0.00,,CLR,0.00,VWS V14.01,2013-08-24 02:00:00,
2013-08-23 22:05:00,61.9,60.2,30.07,NE,48,0.0,0.0,94,0.00,,CLR,0.00,VWS V14.01,2013-08-24 02:05:00,
2013-08-23 22:10:00,61.6,60.2,30.07,NE,46,0.0,0.0,95,0.00,,CLR,0.00,VWS V14.01,2013-08-24 02:10:00,
2013-08-23 22:15:00,61.5,60.1,30.07,NE,46,0.0,0.0,95,0.00,,CLR,0.00,VWS V14.01,2013-08-24 02:15:00,
2013-08-23 22:20:00,61.2,59.8,30.08,NE,46,0.0,0.0,95,0.00,,CLR,0.00,VWS V14.01,2013-08-24 02:20:00,
2013-08-23 22:25:00,61.1,59.7,30.08,NE,45,0.0,0.0,95,0.00,,CLR,0.00,VWS V14.01,2013-08-24 02:25:00,
2013-08-23 22:30:00,61.1,59.7,30.08,NE,47,0.0,0.0,95,0.00,,CLR,0.00,VWS V14.01,2013-08-24 02:30:00,
2013-08-23 22:35:00,60.9,59.2,30.08,NE,46,0.0,0.0,94,0.00,,CLR,0.00,VWS V14.01,2013-08-24 02:35:00,
2013-08-23 22:40:00,60.8,59.1,30.08,NE,46,0.0,0.0,94,0.00,,CLR,0.00,VWS V14.01,2013-08-24 02:40:00,
2013-08-23 22:45:00,60.9,58.9,30.08,NE,46,0.0,0.0,93,0.00,,CLR,0.00,VWS V14.01,2013-08-24 02:45:00,
2013-08-23 22:50:00,60.5,58.2,30.08,NE,46,0.0,0.0,92,0.00,,CLR,0.00,VWS V14.01,2013-08-24 02:50:00,
2013-08-23 22:55:00,60.1,58.1,30.08,NE,46,0.0,0.0,93,0.00,,CLR,0.00,VWS V14.01,2013-08-24 02:55:00,
2013-08-23 23:00:00,59.9,57.9,30.08,NE,46,0.0,0.0,93,0.00,,CLR,0.00,VWS V14.01,2013-08-24 03:00:00,
2013-08-23 23:05:00,59.7,57.7,30.08,NE,45,0.0,0.0,93,0.00,,CLR,0.00,VWS V14.01,2013-08-24 03:05:00,
2013-08-23 23:10:00,59.7,58.0,30.09,NE,45,0.0,0.0,94,0.00,,CLR,0.00,VWS V14.01,2013-08-24 03:10:00,
2013-08-23 23:15:00,59.7,58.3,30.09,NE,53,0.0,0.0,95,0.00,,CLR,0.00,VWS V14.01,2013-08-24 03:15:00,
2013-08-23 23:20:00,59.8,58.4,30.09,NE,53,0.0,0.0,95,0.00,,CLR,0.00,VWS V14.01,2013-08-24 03:20:00,
2013-08-23 23:25:00,59.7,58.3,30.09,NE,51,0.0,0.0,95,0.00,,CLR,0.00,VWS V14.01,2013-08-24 03:25:00,
2013-08-23 23:30:00,59.5,58.1,30.10,NE,51,0.0,0.0,95,0.00,,CLR,0.00,VWS V14.01,2013-08-24 03:30:00,
2013-08-23 23:35:00,59.5,58.1,30.10,NE,51,0.0,0.0,95,0.00,,CLR,0.00,VWS V14.01,2013-08-24 03:35:00,
2013-08-23 23:40:00,59.8,58.7,30.10,NE,51,0.0,0.0,96,0.00,,CLR,0.00,VWS V14.01,2013-08-24 03:40:00,
2013-08-23 23:45:00,59.7,58.6,30.10,NE,51,0.0,0.0,96,0.00,,CLR,0.00,VWS V14.01,2013-08-24 03:45:00,
2013-08-23 23:50:00,59.5,58.4,30.10,NE,51,0.0,0.0,96,0.00,,CLR,0.00,VWS V14.01,2013-08-24 03:50:00,
2013-08-23 23:55:00,59.0,57.6,30.10,NE,51,0.0,0.0,95,0.00,,CLR,0.00,VWS V14.01,2013-08-24 03:55:00,